Time;durP1;ratioP1;P1;durP2;ratioP2;P2;SDS_P1;SDS_P2;PMS_P1;PMS_P2;Temp;Humidity;BMP_temperature;BMP_pressure;BME280_temperature;BME280_humidity;BME280_pressure;Samples;Min_cycle;Max_cycle;Signal;HPM_P1;HPM_P2
2022/12/20 00:00:07;;;;;;;68.00;25.83;;;;;0.40;96973.00;;;;8367123;28;20228;-69
2022/12/20 00:04:12;;;;;;;58.40;24.20;;;;;0.50;96980.00;;;;8366119;28;20547;-70
2022/12/20 00:08:16;;;;;;;63.90;26.07;;;;;0.50;96983.00;;;;8367290;28;20221;-69
2022/12/20 00:12:50;;;;;;;65.07;25.87;;;;;0.50;96988.00;;;;8365890;28;20194;-69
2022/12/20 00:16:55;;;;;;;60.93;23.90;;;;;0.50;96989.00;;;;8365870;28;20228;-69
2022/12/20 00:20:59;;;;;;;62.10;25.30;;;;;0.60;96999.00;;;;8366216;28;20279;-69
2022/12/20 00:25:11;;;;;;;69.47;26.50;;;;;0.60;96993.00;;;;8365635;28;20197;-69
2022/12/20 00:29:15;;;;;;;70.37;25.77;;;;;0.70;96993.00;;;;8366384;28;20674;-69
2022/12/20 00:33:19;;;;;;;63.03;25.93;;;;;0.60;96983.00;;;;8365138;28;20244;-69
2022/12/20 00:37:53;;;;;;;67.40;26.77;;;;;0.70;96974.00;;;;8365678;28;20263;-69
2022/12/20 00:41:56;;;;;;;62.80;25.03;;;;;0.70;96969.00;;;;8366036;28;20197;-69
2022/12/20 00:46:00;;;;;;;63.37;23.93;;;;;0.70;96977.00;;;;8364995;28;20253;-70
2022/12/20 00:50:06;;;;;;;64.63;25.90;;;;;0.70;96968.00;;;;8366115;28;20204;-69
2022/12/20 00:54:09;;;;;;;71.23;25.57;;;;;0.70;96971.00;;;;8365011;28;20194;-69
2022/12/20 00:58:45;;;;;;;70.80;26.17;;;;;0.70;96977.00;;;;8365288;28;20273;-69
2022/12/20 01:02:48;;;;;;;64.43;24.40;;;;;0.70;96979.00;;;;8365262;28;20214;-69
2022/12/20 01:06:53;;;;;;;59.73;25.47;;;;;0.70;96980.00;;;;8365024;28;20202;-69
2022/12/20 01:11:00;;;;;;;57.23;25.03;;;;;0.70;96973.00;;;;8363919;28;20255;-69
2022/12/20 01:15:34;;;;;;;62.40;25.47;;;;;0.60;96973.00;;;;8363646;28;20239;-69
2022/12/20 01:19:37;;;;;;;67.37;25.30;;;;;0.60;96981.00;;;;8364518;28;20217;-69
2022/12/20 01:23:42;;;;;;;63.77;24.70;;;;;0.50;96970.00;;;;8365082;28;20297;-69
2022/12/20 01:28:16;;;;;;;68.53;25.40;;;;;0.50;96982.00;;;;8364666;28;20680;-69
2022/12/20 01:32:19;;;;;;;63.97;24.70;;;;;0.50;96983.00;;;;8364990;28;20248;-69
2022/12/20 01:36:24;;;;;;;64.57;25.70;;;;;0.50;96988.00;;;;8364020;28;20207;-69
2022/12/20 01:41:00;;;;;;;62.23;24.67;;;;;0.50;96973.00;;;;8364593;28;20263;-69
2022/12/20 01:45:12;;;;;;;67.17;25.67;;;;;0.50;96968.00;;;;8363582;28;20206;-69
2022/12/20 01:49:19;;;;;;;68.50;26.20;;;;;0.40;96967.00;;;;8364458;28;20581;-69
2022/12/20 01:53:24;;;;;;;66.00;25.97;;;;;0.40;96971.00;;;;8364882;28;20189;-69
2022/12/20 01:57:34;;;;;;;63.40;24.53;;;;;0.40;96942.00;;;;8363623;28;20205;-69
2022/12/20 02:02:04;;;;;;;61.97;23.90;;;;;0.40;96944.00;;;;8364812;28;20686;-69
2022/12/20 02:06:16;;;;;;;66.90;26.10;;;;;0.40;96932.00;;;;8363413;28;20206;-69
2022/12/20 02:10:24;;;;;;;76.90;26.53;;;;;0.50;96930.00;;;;8364070;28;20205;-69
2022/12/20 02:14:42;;;;;;;82.23;29.37;;;;;0.40;96932.00;;;;8364519;28;20578;-70
2022/12/20 02:19:14;;;;;;;72.67;27.23;;;;;0.40;96946.00;;;;8363195;28;20217;-69
2022/12/20 02:23:35;;;;;;;67.73;24.70;;;;;0.40;96936.00;;;;8363615;28;20639;-70
2022/12/20 02:27:59;;;;;;;63.67;25.83;;;;;0.30;96935.00;;;;8368965;28;20645;-69
2022/12/20 02:32:09;;;;;;;67.10;24.80;;;;;0.30;96930.00;;;;8368945;28;20255;-69
2022/12/20 02:36:14;;;;;;;66.07;24.80;;;;;0.30;96921.00;;;;8370324;28;20198;-69
2022/12/20 02:40:22;;;;;;;64.50;24.37;;;;;0.30;96929.00;;;;8368914;28;20221;-69
2022/12/20 02:48:53;;;;;;;64.03;24.93;;;;;0.20;96924.00;;;;8369091;28;20193;-69
2022/12/20 02:52:57;;;;;;;66.73;25.20;;;;;0.10;96917.00;;;;8368483;28;20263;-69
2022/12/20 02:57:05;;;;;;;71.93;26.17;;;;;0.10;96926.00;;;;8367953;28;20252;-69
2022/12/20 03:01:14;;;;;;;73.80;25.10;;;;;0.00;96919.00;;;;8396301;22;20220;-72
2022/12/20 03:05:23;;;;;;;71.80;25.77;;;;;0.00;96910.00;;;;8303810;28;20242;-73
2022/12/20 03:09:26;;;;;;;64.57;24.80;;;;;0.00;96894.00;;;;8315741;28;20210;-70
2022/12/20 03:13:29;;;;;;;70.13;24.73;;;;;0.00;96884.00;;;;8309697;28;20202;-69
2022/12/20 03:17:32;;;;;;;65.13;24.23;;;;;0.00;96879.00;;;;8320567;28;20758;-70
2022/12/20 03:21:37;;;;;;;63.77;25.00;;;;;0.00;96880.00;;;;8315866;28;20221;-69
2022/12/20 03:25:40;;;;;;;75.50;27.60;;;;;0.00;96895.00;;;;8314451;28;20213;-71
2022/12/20 03:29:44;;;;;;;62.30;25.03;;;;;0.00;96892.00;;;;8320706;28;20341;-70
2022/12/20 03:33:47;;;;;;;78.10;27.50;;;;;0.10;96881.00;;;;8318932;28;20239;-70
2022/12/20 03:37:52;;;;;;;77.37;24.70;;;;;0.10;96891.00;;;;8310124;28;20570;-71
2022/12/20 03:41:55;;;;;;;69.97;26.33;;;;;0.20;96880.00;;;;8312986;28;20581;-71
2022/12/20 03:45:58;;;;;;;71.13;25.97;;;;;0.20;96889.00;;;;8320980;28;20186;-70
2022/12/20 03:50:01;;;;;;;69.50;25.33;;;;;0.30;96893.00;;;;8313990;28;20548;-71
2022/12/20 03:54:06;;;;;;;67.27;25.00;;;;;0.30;96891.00;;;;8318153;28;20247;-71
2022/12/20 03:58:09;;;;;;;65.03;23.77;;;;;0.40;96897.00;;;;8318095;28;20195;-71
2022/12/20 04:02:12;;;;;;;73.73;25.87;;;;;0.40;96892.00;;;;8313591;28;20271;-70
2022/12/20 04:06:16;;;;;;;80.50;27.40;;;;;0.40;96883.00;;;;8312204;28;20871;-70
2022/12/20 04:10:22;;;;;;;67.73;25.00;;;;;0.40;96897.00;;;;8314118;28;20648;-70
2022/12/20 04:14:25;;;;;;;67.37;24.67;;;;;0.40;96889.00;;;;8319783;28;20720;-71
2022/12/20 04:18:29;;;;;;;68.20;24.40;;;;;0.40;96878.00;;;;8315792;28;20225;-69
2022/12/20 04:22:32;;;;;;;65.60;24.70;;;;;0.50;96872.00;;;;8319022;28;20683;-70
2022/12/20 04:26:36;;;;;;;65.93;23.63;;;;;0.50;96860.00;;;;8313035;28;20248;-71
2022/12/20 04:30:41;;;;;;;69.30;26.37;;;;;0.40;96851.00;;;;8306265;28;20704;-71
2022/12/20 04:34:44;;;;;;;72.97;25.37;;;;;0.40;96848.00;;;;8319037;28;20816;-70
2022/12/20 04:38:47;;;;;;;71.53;24.37;;;;;0.40;96854.00;;;;8307609;28;20234;-71
2022/12/20 04:42:51;;;;;;;63.13;24.67;;;;;0.50;96869.00;;;;8305586;28;20273;-71
2022/12/20 04:46:54;;;;;;;70.43;25.63;;;;;0.50;96877.00;;;;8325932;28;20714;-71
2022/12/20 04:51:07;;;;;;;74.37;26.77;;;;;0.60;96872.00;;;;8308159;28;20254;-71
2022/12/20 04:55:11;;;;;;;75.10;26.03;;;;;0.50;96856.00;;;;8317960;28;21398;-70
2022/12/20 04:59:15;;;;;;;74.23;25.67;;;;;0.60;96868.00;;;;8307474;28;20360;-71
2022/12/20 05:03:18;;;;;;;67.57;25.13;;;;;0.60;96861.00;;;;8311224;28;20230;-71
2022/12/20 05:07:22;;;;;;;69.30;26.80;;;;;0.70;96850.00;;;;8312373;28;20260;-72
2022/12/20 05:16:42;;;;;;;63.57;24.10;;;;;0.70;96845.00;;;;8330819;28;20681;-71
2022/12/20 05:30:14;;;;;;;78.07;26.20;;;;;0.70;96862.00;;;;8330435;28;20580;-69
2022/12/20 05:34:19;;;;;;;74.00;25.87;;;;;0.70;96857.00;;;;8331885;28;20230;-69
2022/12/20 05:38:22;;;;;;;67.93;24.60;;;;;0.80;96861.00;;;;8330409;28;20582;-68
2022/12/20 05:42:25;;;;;;;71.00;25.93;;;;;0.80;96822.00;;;;8331580;28;20222;-68
2022/12/20 05:46:28;;;;;;;77.90;26.53;;;;;0.80;96829.00;;;;8330953;28;20581;-68
2022/12/20 05:51:07;;;;;;;71.00;24.80;;;;;0.80;96830.00;;;;8330719;28;20196;-68
2022/12/20 05:55:10;;;;;;;67.57;24.30;;;;;0.80;96837.00;;;;8330760;28;20200;-68
2022/12/20 05:59:14;;;;;;;67.87;24.63;;;;;0.80;96854.00;;;;8331710;28;20223;-68
2022/12/20 06:03:17;;;;;;;68.27;24.70;;;;;0.80;96854.00;;;;8335998;28;20644;-67
2022/12/20 06:07:22;;;;;;;79.30;25.57;;;;;0.80;96834.00;;;;8337571;28;20241;-68
2022/12/20 06:11:56;;;;;;;75.10;25.57;;;;;0.80;96834.00;;;;8337022;28;20216;-67
2022/12/20 06:16:00;;;;;;;64.93;24.57;;;;;0.80;96847.00;;;;8337199;28;20197;-68
2022/12/20 06:20:04;;;;;;;73.10;25.37;;;;;0.80;96842.00;;;;8336982;28;20728;-68
2022/12/20 06:24:08;;;;;;;72.80;22.87;;;;;0.90;96842.00;;;;8337339;28;20194;-68
2022/12/20 06:28:45;;;;;;;75.97;26.00;;;;;0.90;96843.00;;;;8337961;28;20257;-68
2022/12/20 06:32:48;;;;;;;66.93;23.73;;;;;0.90;96851.00;;;;8336679;28;20203;-68
2022/12/20 06:36:51;;;;;;;75.30;25.07;;;;;1.00;96834.00;;;;8337408;28;20561;-68
2022/12/20 06:40:56;;;;;;;67.47;25.00;;;;;0.90;96818.00;;;;8336604;28;20613;-68
2022/12/20 06:45:30;;;;;;;71.90;25.40;;;;;0.80;96831.00;;;;8336947;28;20585;-68
2022/12/20 06:49:41;;;;;;;71.33;24.07;;;;;0.80;96827.00;;;;8336993;28;20550;-68
2022/12/20 06:53:44;;;;;;;69.97;24.50;;;;;0.90;96818.00;;;;8337246;28;20503;-68
2022/12/20 06:57:48;;;;;;;71.03;24.90;;;;;0.90;96817.00;;;;8335578;28;20546;-68
2022/12/20 07:01:51;;;;;;;69.63;24.87;;;;;0.90;96809.00;;;;8335943;28;20573;-68
2022/12/20 07:06:29;;;;;;;72.57;25.60;;;;;0.90;96807.00;;;;8335347;28;20196;-68
2022/12/20 07:10:34;;;;;;;83.77;25.93;;;;;0.90;96804.00;;;;8335399;28;20254;-68
2022/12/20 07:15:13;;;;;;;68.70;24.17;;;;;0.90;96798.00;;;;8334593;28;20198;-68
2022/12/20 07:19:16;;;;;;;70.67;23.97;;;;;0.90;96799.00;;;;8336084;28;20548;-68
2022/12/20 07:23:55;;;;;;;76.70;25.10;;;;;1.00;96809.00;;;;8334695;28;20222;-68
2022/12/20 07:27:58;;;;;;;72.63;25.50;;;;;1.10;96800.00;;;;8335299;28;20202;-68
2022/12/20 07:32:02;;;;;;;69.23;25.50;;;;;1.20;96817.00;;;;8335094;28;20195;-69
2022/12/20 07:36:36;;;;;;;70.63;25.07;;;;;1.20;96840.00;;;;8334888;28;20279;-68
2022/12/20 07:40:42;;;;;;;69.63;26.67;;;;;1.30;96837.00;;;;8333539;28;20410;-69
2022/12/20 07:45:16;;;;;;;77.43;25.67;;;;;1.30;96841.00;;;;8335234;28;20285;-69
2022/12/20 07:49:22;;;;;;;72.87;25.30;;;;;1.40;96844.00;;;;8334107;28;20194;-69
2022/12/20 07:53:28;;;;;;;67.47;25.10;;;;;1.50;96830.00;;;;8334666;28;20649;-68
2022/12/20 07:57:36;;;;;;;69.80;23.47;;;;;1.60;96829.00;;;;8333862;28;20198;-68
2022/12/20 08:02:08;;;;;;;64.30;23.87;;;;;1.60;96833.00;;;;8334111;28;20274;-68
2022/12/20 08:06:14;;;;;;;69.50;24.73;;;;;1.60;96828.00;;;;8334374;28;20207;-68
2022/12/20 08:10:19;;;;;;;70.37;25.23;;;;;1.70;96829.00;;;;8334207;28;20663;-69
2022/12/20 08:14:22;;;;;;;67.90;24.10;;;;;1.70;96817.00;;;;8333746;28;20200;-68
2022/12/20 08:18:59;;;;;;;67.90;24.53;;;;;1.80;96823.00;;;;8333692;28;20271;-69
2022/12/20 08:23:04;;;;;;;74.50;25.37;;;;;1.80;96818.00;;;;8332478;28;20281;-68
2022/12/20 08:27:08;;;;;;;72.87;24.70;;;;;1.80;96808.00;;;;8333973;28;20245;-68
2022/12/20 08:31:12;;;;;;;61.43;21.23;;;;;1.90;96806.00;;;;8333431;28;20615;-68
2022/12/20 08:35:46;;;;;;;67.13;24.37;;;;;1.80;96806.00;;;;8332679;28;20198;-68
2022/12/20 08:39:51;;;;;;;69.10;23.60;;;;;2.00;96813.00;;;;8331010;28;20204;-68
2022/12/20 08:43:54;;;;;;;63.27;23.33;;;;;2.00;96798.00;;;;8332921;28;20200;-68
2022/12/20 08:47:57;;;;;;;64.20;23.97;;;;;2.10;96789.00;;;;8332359;28;20198;-68
2022/12/20 08:52:34;;;;;;;69.43;23.07;;;;;2.20;96783.00;;;;8332594;28;20196;-68
2022/12/20 08:56:38;;;;;;;67.30;24.20;;;;;2.30;96787.00;;;;8332160;28;20197;-68
2022/12/20 09:00:41;;;;;;;65.53;22.67;;;;;2.30;96787.00;;;;8331541;28;20225;-69
2022/12/20 09:04:44;;;;;;;60.17;22.70;;;;;2.40;96785.00;;;;8332370;28;20228;-68
2022/12/20 09:08:48;;;;;;;61.70;23.00;;;;;2.50;96779.00;;;;8332158;28;20657;-68
2022/12/20 09:13:26;;;;;;;59.17;23.80;;;;;2.60;96783.00;;;;8331947;28;20246;-68
2022/12/20 09:17:31;;;;;;;55.73;21.13;;;;;2.70;96786.00;;;;8331196;28;20193;-68
2022/12/20 09:21:34;;;;;;;59.47;22.30;;;;;2.60;96782.00;;;;8331209;28;20227;-68
2022/12/20 09:25:38;;;;;;;63.43;24.57;;;;;2.70;96782.00;;;;8331281;28;20251;-68
2022/12/20 09:30:16;;;;;;;60.90;23.33;;;;;2.80;96782.00;;;;8331915;28;20692;-68
2022/12/20 09:34:19;;;;;;;62.87;23.23;;;;;2.80;96782.00;;;;8331633;28;20257;-67
2022/12/20 09:38:56;;;;;;;64.43;23.53;;;;;2.90;96775.00;;;;8329837;28;20250;-67
2022/12/20 09:43:00;;;;;;;65.37;25.33;;;;;3.10;96773.00;;;;8331942;28;20302;-67
2022/12/20 09:47:09;;;;;;;60.27;22.83;;;;;3.20;96766.00;;;;8330736;28;20199;-67
2022/12/20 09:51:35;;;;;;;54.37;21.23;;;;;3.10;96779.00;;;;8331968;28;20664;-67
2022/12/20 09:55:43;;;;;;;62.67;23.00;;;;;3.10;96775.00;;;;8350412;28;20518;-68
2022/12/20 09:59:46;;;;;;;62.97;24.57;;;;;3.10;96783.00;;;;8364260;28;20197;-67
2022/12/20 10:03:55;;;;;;;64.37;23.30;;;;;3.10;96771.00;;;;8364064;28;20225;-68
2022/12/20 10:08:07;;;;;;;61.93;22.83;;;;;3.10;96759.00;;;;8363808;28;20188;-68
2022/12/20 10:12:40;;;;;;;58.97;22.77;;;;;3.10;96756.00;;;;8361303;28;20634;-67
2022/12/20 10:17:14;;;;;;;54.10;21.80;;;;;3.10;96743.00;;;;8363071;28;20207;-69
2022/12/20 10:21:26;;;;;;;65.67;25.37;;;;;3.20;96739.00;;;;8362879;28;20324;-68
2022/12/20 10:25:53;;;;;;;57.13;23.13;;;;;3.30;96742.00;;;;8363827;28;20196;-68
2022/12/20 10:29:57;;;;;;;61.43;23.33;;;;;3.40;96740.00;;;;8363336;28;20280;-67
2022/12/20 10:34:00;;;;;;;56.77;22.57;;;;;3.60;96742.00;;;;8363010;28;20189;-68
2022/12/20 10:38:43;;;;;;;62.43;23.70;;;;;3.70;96725.00;;;;8363331;28;20208;-68
2022/12/20 10:42:46;;;;;;;63.60;23.17;;;;;3.70;96731.00;;;;8363972;28;20307;-68
2022/12/20 10:46:53;;;;;;;55.50;22.47;;;;;3.80;96717.00;;;;8364807;28;20193;-67
2022/12/20 10:50:59;;;;;;;63.33;24.53;;;;;3.80;96707.00;;;;8368709;28;20190;-68
2022/12/20 10:55:35;;;;;;;51.53;21.63;;;;;3.80;96696.00;;;;8369922;28;20192;-67
2022/12/20 10:59:42;;;;;;;57.80;22.80;;;;;3.80;96686.00;;;;8369062;28;20223;-68
2022/12/20 11:03:55;;;;;;;54.23;22.53;;;;;3.80;96672.00;;;;8368480;28;20231;-67
2022/12/20 11:08:06;;;;;;;53.10;22.03;;;;;3.90;96663.00;;;;8369536;28;20265;-67
2022/12/20 11:12:36;;;;;;;58.50;23.93;;;;;3.90;96666.00;;;;8369006;28;20200;-67
2022/12/20 11:16:40;;;;;;;53.10;20.83;;;;;3.90;96664.00;;;;8368286;28;20245;-68
2022/12/20 11:20:50;;;;;;;61.23;23.43;;;;;4.00;96645.00;;;;8368465;28;20215;-68
2022/12/20 11:25:07;;;;;;;55.90;21.20;;;;;4.00;96643.00;;;;8368676;28;20188;-69
2022/12/20 11:29:34;;;;;;;49.70;21.00;;;;;3.90;96635.00;;;;8368076;28;20200;-69
2022/12/20 11:34:14;;;;;;;50.00;20.70;;;;;3.80;96628.00;;;;8368526;28;20221;-70
2022/12/20 11:38:30;;;;;;;51.23;21.30;;;;;3.70;96617.00;;;;8367911;28;20232;-70
2022/12/20 11:42:47;;;;;;;59.63;21.70;;;;;3.70;96612.00;;;;8368150;28;20271;-70
2022/12/20 11:47:28;;;;;;;54.53;21.10;;;;;3.60;96607.00;;;;8367930;28;20280;-69
2022/12/20 11:51:39;;;;;;;52.70;20.77;;;;;3.50;96602.00;;;;8367522;28;20203;-68
2022/12/20 11:56:08;;;;;;;56.67;21.37;;;;;3.40;96591.00;;;;8366852;28;20200;-68
2022/12/20 12:00:14;;;;;;;58.57;21.20;;;;;3.40;96592.00;;;;8366544;28;20202;-69
2022/12/20 12:04:21;;;;;;;57.90;22.57;;;;;3.50;96589.00;;;;8366818;28;20310;-70
2022/12/20 12:08:31;;;;;;;60.87;22.53;;;;;3.60;96583.00;;;;8367419;28;20204;-70
2022/12/20 12:12:40;;;;;;;56.17;21.63;;;;;3.50;96588.00;;;;8366926;28;20205;-70
2022/12/20 12:16:50;;;;;;;57.40;22.50;;;;;3.50;96582.00;;;;8366733;28;20204;-70
2022/12/20 12:21:01;;;;;;;57.47;22.83;;;;;3.50;96570.00;;;;8366140;28;20185;-70
2022/12/20 12:25:15;;;;;;;49.90;20.67;;;;;3.60;96580.00;;;;8367158;28;20197;-70
2022/12/20 12:29:21;;;;;;;57.60;21.83;;;;;3.60;96571.00;;;;8365335;28;20286;-70
2022/12/20 12:33:29;;;;;;;56.47;22.37;;;;;3.60;96564.00;;;;8365888;28;20230;-71
2022/12/20 12:38:14;;;;;;;56.20;20.63;;;;;3.60;96554.00;;;;8363785;28;20679;-71
2022/12/20 12:42:37;;;;;;;57.33;21.67;;;;;3.50;96573.00;;;;8363873;28;20269;-71
2022/12/20 12:46:55;;;;;;;53.27;20.70;;;;;3.60;96568.00;;;;8364066;28;20221;-70
2022/12/20 12:51:01;;;;;;;56.43;21.30;;;;;3.70;96560.00;;;;8366111;28;20200;-70
2022/12/20 12:55:36;;;;;;;51.67;20.83;;;;;3.70;96560.00;;;;8365025;28;20196;-71
2022/12/20 12:59:46;;;;;;;55.13;21.60;;;;;3.60;96549.00;;;;8365694;28;20223;-71
2022/12/20 13:04:09;;;;;;;54.40;21.77;;;;;3.60;96549.00;;;;8363899;28;20224;-71
2022/12/20 13:08:47;;;;;;;63.93;23.47;;;;;3.50;96547.00;;;;8363116;28;20195;-71
2022/12/20 13:13:13;;;;;;;54.53;20.60;;;;;3.50;96564.00;;;;8363071;28;20196;-71
2022/12/20 13:17:49;;;;;;;56.17;21.23;;;;;3.50;96572.00;;;;8364858;28;20695;-71
2022/12/20 13:21:56;;;;;;;58.00;22.80;;;;;3.40;96566.00;;;;8359698;28;20224;-71
2022/12/20 13:25:59;;;;;;;58.00;21.80;;;;;3.40;96573.00;;;;8364628;28;20184;-71
2022/12/20 13:30:36;;;;;;;54.93;21.70;;;;;3.30;96563.00;;;;8363991;28;20199;-70
2022/12/20 13:34:54;;;;;;;56.27;20.37;;;;;3.30;96545.00;;;;8363598;28;20239;-70
2022/12/20 13:39:00;;;;;;;61.63;21.40;;;;;3.20;96552.00;;;;8364317;28;20271;-70
2022/12/20 13:43:08;;;;;;;59.83;21.57;;;;;3.20;96544.00;;;;8363941;28;20333;-71
2022/12/20 13:47:27;;;;;;;58.37;21.87;;;;;3.30;96539.00;;;;8363893;28;20633;-71
2022/12/20 13:51:31;;;;;;;61.00;22.93;;;;;3.30;96523.00;;;;8364180;28;20199;-71
2022/12/20 13:55:37;;;;;;;59.53;22.60;;;;;3.20;96505.00;;;;8363818;28;20251;-71
2022/12/20 14:00:16;;;;;;;58.50;23.10;;;;;3.10;96498.00;;;;8363833;28;20194;-72
2022/12/20 14:04:20;;;;;;;62.87;22.60;;;;;3.00;96509.00;;;;8364451;28;20650;-71
2022/12/20 14:08:28;;;;;;;65.23;23.63;;;;;3.00;96518.00;;;;8359600;28;20204;-72
2022/12/20 14:12:31;;;;;;;62.83;22.53;;;;;3.00;96503.00;;;;8363117;28;20257;-71
2022/12/20 14:17:16;;;;;;;58.30;21.87;;;;;2.90;96505.00;;;;8364909;28;20184;-71
2022/12/20 14:21:20;;;;;;;70.40;25.73;;;;;2.80;96521.00;;;;8363702;28;20277;-71
2022/12/20 14:25:31;;;;;;;67.57;23.33;;;;;2.80;96537.00;;;;8370155;28;20276;-71
2022/12/20 14:29:35;;;;;;;62.83;24.90;;;;;2.80;96538.00;;;;8369340;28;20211;-71
2022/12/20 14:33:39;;;;;;;66.90;24.47;;;;;2.70;96537.00;;;;8369840;28;20644;-71
2022/12/20 14:37:53;;;;;;;68.83;24.27;;;;;2.60;96525.00;;;;8369477;28;20257;-71
2022/12/20 14:41:59;;;;;;;67.30;23.53;;;;;2.60;96508.00;;;;8369405;28;20199;-71
2022/12/20 14:46:18;;;;;;;61.53;23.57;;;;;2.60;96502.00;;;;8369390;28;20204;-71
2022/12/20 14:50:26;;;;;;;70.03;24.53;;;;;2.60;96510.00;;;;8369587;28;20206;-71
2022/12/20 14:54:29;;;;;;;65.00;25.13;;;;;2.60;96491.00;;;;8369819;28;20667;-69
2022/12/20 14:59:06;;;;;;;67.97;23.73;;;;;2.70;96462.00;;;;8368850;28;20199;-69
2022/12/20 15:03:17;;;;;;;68.33;25.10;;;;;2.60;96435.00;;;;8368958;28;20250;-69
2022/12/20 15:07:30;;;;;;;68.10;24.10;;;;;2.50;96471.00;;;;8368248;28;20191;-68
2022/12/20 15:11:35;;;;;;;65.23;23.23;;;;;2.50;96476.00;;;;8367618;28;20286;-71
2022/12/20 15:15:40;;;;;;;66.10;24.13;;;;;2.50;96475.00;;;;8368251;28;20629;-71
2022/12/20 15:19:43;;;;;;;86.47;29.97;;;;;2.50;96464.00;;;;8367886;28;20199;-71
2022/12/20 15:23:50;;;;;;;76.57;27.03;;;;;2.40;96468.00;;;;8367756;28;20223;-70
2022/12/20 15:27:53;;;;;;;70.10;24.30;;;;;2.30;96471.00;;;;8367475;28;20192;-71
2022/12/20 15:32:30;;;;;;;65.20;23.70;;;;;2.20;96470.00;;;;8368136;28;20194;-71
2022/12/20 15:36:35;;;;;;;120.73;47.90;;;;;2.30;96461.00;;;;8366824;28;20538;-71
2022/12/20 15:40:45;;;;;;;99.50;36.90;;;;;2.40;96462.00;;;;8365240;28;20200;-73
2022/12/20 15:45:16;;;;;;;76.13;26.50;;;;;2.40;96460.00;;;;8365152;28;20263;-74
2022/12/20 15:49:21;;;;;;;69.00;26.27;;;;;2.30;96463.00;;;;8365895;28;20211;-71
2022/12/20 15:53:28;;;;;;;83.43;27.03;;;;;2.30;96457.00;;;;8367658;28;20193;-70
2022/12/20 15:58:01;;;;;;;71.40;26.23;;;;;2.30;96455.00;;;;8367304;28;20193;-71
2022/12/20 16:02:18;;;;;;;84.43;32.63;;;;;2.30;96451.00;;;;8368861;28;20262;-70
2022/12/20 16:06:22;;;;;;;114.80;66.27;;;;;2.30;96448.00;;;;8366406;28;20269;-70
2022/12/20 16:11:00;;;;;;;81.10;32.33;;;;;2.30;96454.00;;;;8366510;28;20202;-70
2022/12/20 16:15:04;;;;;;;71.03;29.87;;;;;2.30;96456.00;;;;8365644;28;20200;-71
2022/12/20 16:19:07;;;;;;;82.73;35.60;;;;;2.30;96461.00;;;;8366587;28;20522;-70
2022/12/20 16:23:43;;;;;;;80.93;27.43;;;;;2.40;96475.00;;;;8366517;28;20648;-70
2022/12/20 16:27:48;;;;;;;82.97;29.30;;;;;2.40;96477.00;;;;8365486;28;20244;-70
2022/12/20 16:31:51;;;;;;;70.83;27.20;;;;;2.30;96478.00;;;;8366380;28;20252;-70
2022/12/20 16:35:54;;;;;;;74.57;26.93;;;;;2.30;96471.00;;;;8365545;28;20199;-71
2022/12/20 16:40:33;;;;;;;71.90;26.07;;;;;2.40;96467.00;;;;8366688;28;20253;-71
2022/12/20 16:44:41;;;;;;;65.97;24.40;;;;;2.40;96458.00;;;;8364482;28;20233;-71
2022/12/20 16:48:45;;;;;;;73.00;25.17;;;;;2.30;96454.00;;;;8364948;28;20201;-71
2022/12/20 16:52:49;;;;;;;73.17;24.53;;;;;2.40;96456.00;;;;8364689;28;20202;-71
2022/12/20 16:56:54;;;;;;;64.87;23.10;;;;;2.40;96459.00;;;;8365294;28;20200;-71
2022/12/20 17:01:31;;;;;;;78.43;25.87;;;;;2.40;96468.00;;;;8364957;28;20593;-71
2022/12/20 17:05:38;;;;;;;65.43;23.63;;;;;2.40;96459.00;;;;8365592;28;20264;-71
2022/12/20 17:09:41;;;;;;;75.43;25.53;;;;;2.40;96453.00;;;;8364843;28;20234;-71
2022/12/20 17:14:01;;;;;;;58.57;22.40;;;;;2.40;96455.00;;;;8364798;28;20191;-71
2022/12/20 17:18:41;;;;;;;66.67;25.10;;;;;2.30;96445.00;;;;8359433;28;20190;-72
2022/12/20 17:23:16;;;;;;;73.60;25.23;;;;;2.30;96439.00;;;;8357734;28;20287;-72
2022/12/20 17:27:54;;;;;;;80.07;26.10;;;;;2.30;96433.00;;;;8362376;28;20527;-72
2022/12/20 17:32:28;;;;;;;78.63;24.30;;;;;2.30;96428.00;;;;8364461;28;20546;-72
2022/12/20 17:37:07;;;;;;;69.20;24.77;;;;;2.30;96424.00;;;;8363804;28;20198;-72
2022/12/20 17:41:42;;;;;;;77.00;26.10;;;;;2.30;96428.00;;;;8364217;28;20249;-72
2022/12/20 17:45:46;;;;;;;72.77;24.93;;;;;2.20;96416.00;;;;8364207;28;20222;-72
2022/12/20 17:49:49;;;;;;;65.87;22.53;;;;;2.20;96415.00;;;;8363164;28;20240;-70
2022/12/20 17:54:28;;;;;;;69.23;24.73;;;;;2.10;96412.00;;;;8363746;28;20226;-70
2022/12/20 17:59:03;;;;;;;70.40;24.00;;;;;2.00;96388.00;;;;8367940;28;20521;-70
2022/12/20 18:03:37;;;;;;;70.70;24.27;;;;;2.00;96405.00;;;;8370604;28;20280;-69
2022/12/20 18:08:12;;;;;;;73.00;23.77;;;;;2.00;96411.00;;;;8370813;28;20653;-70
2022/12/20 18:17:15;;;;;;;69.47;21.87;;;;;2.00;96428.00;;;;8369588;28;20259;-69
2022/12/20 18:21:49;;;;;;;66.00;21.73;;;;;1.90;96423.00;;;;8368987;28;20274;-70
2022/12/20 18:25:52;;;;;;;66.87;21.97;;;;;1.90;96431.00;;;;8370046;28;20226;-70
2022/12/20 18:29:55;;;;;;;69.53;22.70;;;;;2.00;96417.00;;;;8369872;28;20263;-69
2022/12/20 18:34:29;;;;;;;66.90;22.13;;;;;2.00;96413.00;;;;8369021;28;20206;-70
2022/12/20 18:39:07;;;;;;;79.50;23.83;;;;;1.90;96427.00;;;;8369949;28;20223;-70
2022/12/20 18:43:10;;;;;;;75.80;24.47;;;;;1.90;96441.00;;;;8369172;28;20226;-70
2022/12/20 18:47:13;;;;;;;76.30;24.80;;;;;1.90;96457.00;;;;8369219;28;20197;-69
2022/12/20 18:51:19;;;;;;;76.60;24.83;;;;;1.80;96440.00;;;;8370145;28;20668;-70
2022/12/20 18:55:23;;;;;;;90.00;27.87;;;;;1.90;96413.00;;;;8369525;28;20241;-69
2022/12/20 18:59:26;;;;;;;81.20;25.50;;;;;1.90;96403.00;;;;8369018;28;20205;-69
2022/12/20 19:03:30;;;;;;;96.20;29.80;;;;;1.90;96412.00;;;;8369181;28;20690;-69
2022/12/20 19:08:04;;;;;;;76.67;24.60;;;;;1.90;96427.00;;;;8368630;28;20194;-69
2022/12/20 19:12:09;;;;;;;73.20;25.27;;;;;2.00;96414.00;;;;8368875;28;20211;-69
2022/12/20 19:16:14;;;;;;;118.13;33.37;;;;;2.00;96404.00;;;;8368369;28;20199;-69
2022/12/20 19:20:48;;;;;;;68.77;24.83;;;;;2.00;96411.00;;;;8367006;28;20203;-69
2022/12/20 19:25:23;;;;;;;69.93;24.13;;;;;2.10;96415.00;;;;8366341;28;20237;-68
2022/12/20 19:30:02;;;;;;;71.77;24.17;;;;;2.10;96413.00;;;;8367363;28;20270;-71
2022/12/20 19:34:36;;;;;;;82.20;25.37;;;;;2.10;96397.00;;;;8368540;28;20535;-71
2022/12/20 19:39:14;;;;;;;72.13;24.53;;;;;2.10;96406.00;;;;8367519;28;20195;-71
2022/12/20 19:43:17;;;;;;;71.50;23.77;;;;;2.10;96375.00;;;;8367293;28;20208;-71
2022/12/20 19:47:56;;;;;;;65.27;23.00;;;;;2.10;96362.00;;;;8367884;28;20247;-70
2022/12/20 19:51:59;;;;;;;66.23;22.70;;;;;2.10;96343.00;;;;8367531;28;20257;-70
2022/12/20 19:56:36;;;;;;;68.90;24.17;;;;;2.10;96345.00;;;;8366812;28;20198;-70
2022/12/20 20:01:14;;;;;;;66.63;24.00;;;;;2.10;96361.00;;;;8367016;28;20198;-71
2022/12/20 20:05:49;;;;;;;70.67;24.83;;;;;2.20;96351.00;;;;8366762;28;20733;-70
2022/12/20 20:10:23;;;;;;;66.63;23.37;;;;;2.20;96347.00;;;;8366723;28;20203;-70
2022/12/20 20:14:26;;;;;;;65.57;22.57;;;;;2.20;96332.00;;;;8367471;28;20251;-70
2022/12/20 20:18:30;;;;;;;68.00;23.97;;;;;2.20;96307.00;;;;8366353;28;20199;-70
2022/12/20 20:23:09;;;;;;;62.67;23.60;;;;;2.20;96315.00;;;;8362958;28;20225;-70
2022/12/20 20:27:46;;;;;;;72.47;25.13;;;;;2.20;96314.00;;;;8366457;28;20223;-70
2022/12/20 20:32:24;;;;;;;67.17;22.87;;;;;2.20;96327.00;;;;8366550;28;20604;-70
2022/12/20 20:37:01;;;;;;;62.73;22.47;;;;;2.30;96322.00;;;;8365318;28;20539;-70
2022/12/20 20:41:41;;;;;;;65.13;23.80;;;;;2.30;96313.00;;;;8365954;28;20591;-69
2022/12/20 20:46:15;;;;;;;69.70;24.33;;;;;2.30;96303.00;;;;8362492;28;20222;-70
2022/12/20 20:50:52;;;;;;;60.30;24.23;;;;;2.20;96309.00;;;;8364772;28;20210;-69
2022/12/20 20:55:29;;;;;;;65.17;23.33;;;;;2.10;96298.00;;;;8366206;28;20634;-70
2022/12/20 21:00:08;;;;;;;65.70;21.83;;;;;2.10;96301.00;;;;8365221;28;20636;-69
2022/12/20 21:04:42;;;;;;;82.33;25.97;;;;;2.10;96299.00;;;;8364646;28;20256;-69
2022/12/20 21:09:17;;;;;;;68.07;23.37;;;;;2.10;96291.00;;;;8364807;28;20636;-70
2022/12/20 21:13:23;;;;;;;75.27;23.10;;;;;2.10;96328.00;;;;8365508;28;20268;-69
2022/12/20 21:18:01;;;;;;;66.27;22.90;;;;;2.00;96314.00;;;;8364008;28;20200;-69
2022/12/20 21:22:38;;;;;;;76.40;23.23;;;;;2.00;96295.00;;;;8364172;28;20198;-69